Time;durP1;ratioP1;P1;durP2;ratioP2;P2;SDS_P1;SDS_P2;PMS_P1;PMS_P2;Temp;Humidity;BMP_temperature;BMP_pressure;BME280_temperature;BME280_humidity;BME280_pressure;Samples;Min_cycle;Max_cycle;Signal;HPM_P1;HPM_P2
2022/05/12 00:01:58;;;;;;;9.23;6.60;;;;;;;;;;4937097;29;20043;-73
2022/05/12 00:04:23;;;;;;;10.68;6.65;;;;;;;;;;4937680;29;20030;-72
2022/05/12 00:06:49;;;;;;;7.70;5.95;;;;;;;;;;4937463;28;20032;-72
2022/05/12 00:09:14;;;;;;;6.13;5.53;;;;;;;;;;4938159;28;20035;-73
2022/05/12 00:11:40;;;;;;;7.43;5.72;;;;;;;;;;4937698;29;20408;-72
2022/05/12 00:14:05;;;;;;;6.63;5.50;;;;;;;;;;4929035;28;20115;-73
2022/05/12 00:16:30;;;;;;;9.48;5.80;;;;;;;;;;4937259;29;20023;-72
2022/05/12 00:18:56;;;;;;;7.35;6.43;;;;;;;;;;4939096;28;20427;-72
2022/05/12 00:21:21;;;;;;;8.50;5.32;;;;;;;;;;4936906;29;20043;-71
2022/05/12 00:23:56;;;;;;;7.32;5.15;;;;;;;;;;4942796;28;20058;-71
2022/05/12 00:26:25;;;;;;;7.68;6.30;;;;;;;;;;4927930;28;20037;-73
2022/05/12 00:28:51;;;;;;;8.20;5.80;;;;;;;;;;4929633;28;20039;-71
2022/05/12 00:31:16;;;;;;;9.18;6.38;;;;;;;;;;4949420;28;20093;-71
2022/05/12 00:33:41;;;;;;;8.13;6.20;;;;;;;;;;4937136;28;20038;-73
2022/05/12 00:36:07;;;;;;;9.52;7.18;;;;;;;;;;4935567;29;20038;-72
2022/05/12 00:38:32;;;;;;;9.23;7.28;;;;;;;;;;4930622;28;20026;-72
2022/05/12 00:40:57;;;;;;;7.60;6.25;;;;;;;;;;4935233;28;20030;-73
2022/05/12 00:43:36;;;;;;;7.68;5.57;;;;;;;;;;4928669;28;20403;-73
2022/05/12 00:46:02;;;;;;;7.70;6.22;;;;;;;;;;4929854;28;20019;-71
2022/05/12 00:48:27;;;;;;;6.80;6.10;;;;;;;;;;4936546;29;20027;-71
2022/05/12 00:50:52;;;;;;;8.38;6.85;;;;;;;;;;4937343;29;20097;-73
2022/05/12 00:53:18;;;;;;;6.88;5.78;;;;;;;;;;4936793;29;20031;-70
2022/05/12 00:55:44;;;;;;;7.07;6.15;;;;;;;;;;4931438;28;20045;-71
2022/05/12 00:58:12;;;;;;;8.63;6.07;;;;;;;;;;4934256;29;20034;-71
2022/05/12 01:00:38;;;;;;;7.40;6.15;;;;;;;;;;4936519;28;20054;-73
2022/05/12 01:03:07;;;;;;;6.55;5.95;;;;;;;;;;4936783;29;20342;-71
2022/05/12 01:05:32;;;;;;;7.20;6.13;;;;;;;;;;4937476;28;20031;-71
2022/05/12 01:07:58;;;;;;;6.43;5.63;;;;;;;;;;4926140;28;20246;-72
2022/05/12 01:10:25;;;;;;;7.28;6.55;;;;;;;;;;4928784;28;20106;-70
2022/05/12 01:12:51;;;;;;;5.72;5.18;;;;;;;;;;4936000;28;20037;-71
2022/05/12 01:15:17;;;;;;;6.25;5.60;;;;;;;;;;4936806;28;20165;-73
2022/05/12 01:17:43;;;;;;;6.75;6.13;;;;;;;;;;4938510;28;20123;-71
2022/05/12 01:20:09;;;;;;;6.63;6.03;;;;;;;;;;4936817;28;20069;-70
2022/05/12 01:22:53;;;;;;;6.43;5.68;;;;;;;;;;4936103;29;20417;-71
2022/05/12 01:25:20;;;;;;;6.60;5.90;;;;;;;;;;4936984;29;20040;-71
2022/05/12 01:27:46;;;;;;;6.63;5.95;;;;;;;;;;4933447;28;20108;-71
2022/05/12 01:30:13;;;;;;;6.75;5.10;;;;;;;;;;4927132;28;20340;-71
2022/05/12 01:32:38;;;;;;;7.53;5.97;;;;;;;;;;4934646;28;20097;-72
2022/05/12 01:35:05;;;;;;;6.50;5.80;;;;;;;;;;4936111;28;20450;-70
2022/05/12 01:37:30;;;;;;;8.25;6.38;;;;;;;;;;4935983;29;20553;-70
2022/05/12 01:39:55;;;;;;;7.53;6.10;;;;;;;;;;4937364;28;20126;-70
2022/05/12 01:42:21;;;;;;;7.05;5.88;;;;;;;;;;4936272;28;20058;-72
2022/05/12 01:44:46;;;;;;;6.10;5.50;;;;;;;;;;4935444;29;20046;-69
2022/05/12 01:47:12;;;;;;;8.30;6.63;;;;;;;;;;4937385;29;20345;-70
2022/05/12 01:49:37;;;;;;;7.80;6.82;;;;;;;;;;4936019;28;20023;-71
2022/05/12 01:52:04;;;;;;;7.88;6.80;;;;;;;;;;4936015;28;20074;-72
2022/05/12 01:54:29;;;;;;;6.63;6.00;;;;;;;;;;4934059;28;20454;-70
2022/05/12 01:56:55;;;;;;;6.43;5.80;;;;;;;;;;4936644;28;20039;-70
2022/05/12 01:59:21;;;;;;;7.60;6.57;;;;;;;;;;4937047;28;20072;-70
2022/05/12 02:01:47;;;;;;;7.38;6.68;;;;;;;;;;4934880;29;20097;-70
2022/05/12 02:04:14;;;;;;;9.07;6.82;;;;;;;;;;4934720;28;20115;-72
2022/05/12 02:06:40;;;;;;;7.53;6.80;;;;;;;;;;4936133;29;20118;-70
2022/05/12 02:09:05;;;;;;;6.75;6.05;;;;;;;;;;4935263;29;20598;-71
2022/05/12 02:11:31;;;;;;;7.55;6.75;;;;;;;;;;4936263;28;20081;-70
2022/05/12 02:13:56;;;;;;;8.27;5.80;;;;;;;;;;4927468;28;20027;-70
2022/05/12 02:16:24;;;;;;;7.32;6.45;;;;;;;;;;4926797;28;20061;-70
2022/05/12 02:18:50;;;;;;;6.85;6.15;;;;;;;;;;4924254;28;20023;-73
2022/05/12 02:21:15;;;;;;;7.20;5.80;;;;;;;;;;4925739;28;20037;-71
2022/05/12 02:23:41;;;;;;;7.50;6.28;;;;;;;;;;4932942;28;20035;-70
2022/05/12 02:26:06;;;;;;;7.05;6.25;;;;;;;;;;4936823;29;20066;-73
2022/05/12 02:28:31;;;;;;;6.25;5.65;;;;;;;;;;4931538;28;20473;-72
2022/05/12 02:30:56;;;;;;;6.63;5.55;;;;;;;;;;4926806;29;20038;-72
2022/05/12 02:33:22;;;;;;;7.75;6.25;;;;;;;;;;4925911;29;20035;-71
2022/05/12 02:35:47;;;;;;;8.32;6.80;;;;;;;;;;4933913;28;20077;-71
2022/05/12 02:38:13;;;;;;;8.02;5.82;;;;;;;;;;4937080;29;20035;-73
2022/05/12 02:40:39;;;;;;;8.80;6.93;;;;;;;;;;4935060;29;21174;-71
2022/05/12 02:43:23;;;;;;;7.63;6.75;;;;;;;;;;4936345;29;20047;-71
2022/05/12 02:45:52;;;;;;;8.95;7.75;;;;;;;;;;4922085;28;20081;-71
2022/05/12 02:48:18;;;;;;;9.75;7.32;;;;;;;;;;4937628;28;20031;-71
2022/05/12 02:50:43;;;;;;;10.93;7.72;;;;;;;;;;4939642;28;23518;-71
2022/05/12 02:53:09;;;;;;;10.20;7.82;;;;;;;;;;4938363;29;20027;-71
2022/05/12 02:55:34;;;;;;;9.38;7.68;;;;;;;;;;4932261;29;20027;-71
2022/05/12 02:57:59;;;;;;;8.98;7.97;;;;;;;;;;4935283;29;20042;-73
2022/05/12 03:00:25;;;;;;;7.97;7.00;;;;;;;;;;4929597;28;20054;-72
2022/05/12 03:02:50;;;;;;;8.23;7.32;;;;;;;;;;4936776;28;20085;-71
2022/05/12 03:05:15;;;;;;;7.95;6.82;;;;;;;;;;4938904;29;20039;-73
2022/05/12 03:07:41;;;;;;;10.13;6.90;;;;;;;;;;4937151;29;20035;-72
2022/05/12 03:10:07;;;;;;;9.13;6.18;;;;;;;;;;4936552;29;20040;-72
2022/05/12 03:12:32;;;;;;;7.53;6.45;;;;;;;;;;4932143;28;20081;-72
2022/05/12 03:14:57;;;;;;;7.18;6.45;;;;;;;;;;4931062;28;20035;-74
2022/05/12 03:17:23;;;;;;;8.95;6.78;;;;;;;;;;4935697;28;20042;-72
2022/05/12 03:19:48;;;;;;;8.15;7.20;;;;;;;;;;4938954;28;20057;-72
2022/05/12 03:22:13;;;;;;;7.13;6.18;;;;;;;;;;4937846;28;20110;-72
2022/05/12 03:24:39;;;;;;;8.27;6.60;;;;;;;;;;4939201;28;20027;-73
2022/05/12 03:27:04;;;;;;;6.50;5.90;;;;;;;;;;4938048;29;20394;-72
2022/05/12 03:29:29;;;;;;;7.13;6.03;;;;;;;;;;4935718;29;20418;-72
2022/05/12 03:31:55;;;;;;;8.05;6.72;;;;;;;;;;4933469;29;20027;-75
2022/05/12 03:34:20;;;;;;;8.02;7.10;;;;;;;;;;4938558;29;21219;-72
2022/05/12 03:36:45;;;;;;;7.60;5.97;;;;;;;;;;4938829;29;20039;-70
2022/05/12 03:39:11;;;;;;;7.03;6.00;;;;;;;;;;4939368;28;20035;-70
2022/05/12 03:41:36;;;;;;;8.82;6.85;;;;;;;;;;4938430;28;20233;-72
2022/05/12 03:46:45;;;;;;;8.45;6.60;;;;;;;;;;4932527;29;20042;-71
2022/05/12 03:49:11;;;;;;;7.22;6.53;;;;;;;;;;4933234;28;20031;-70
2022/05/12 03:51:36;;;;;;;8.13;6.60;;;;;;;;;;4928495;28;20118;-71
2022/05/12 03:54:03;;;;;;;7.18;6.25;;;;;;;;;;4936365;28;20031;-71
2022/05/12 03:56:29;;;;;;;8.18;7.03;;;;;;;;;;4938530;29;20035;-71
2022/05/12 03:58:55;;;;;;;9.05;7.25;;;;;;;;;;4932996;29;20093;-70
2022/05/12 04:01:21;;;;;;;9.80;6.25;;;;;;;;;;4930593;28;20051;-70
2022/05/12 04:03:46;;;;;;;8.20;7.15;;;;;;;;;;4925505;28;20053;-71
2022/05/12 04:06:12;;;;;;;10.18;8.32;;;;;;;;;;4926627;28;20031;-73
2022/05/12 04:08:37;;;;;;;9.02;7.53;;;;;;;;;;4927447;28;20118;-72
2022/05/12 04:11:03;;;;;;;12.52;9.02;;;;;;;;;;4927485;28;20443;-73
2022/05/12 04:13:29;;;;;;;8.98;8.02;;;;;;;;;;4927455;28;20038;-71
2022/05/12 04:15:54;;;;;;;10.57;8.15;;;;;;;;;;4926176;28;20132;-71
2022/05/12 04:18:19;;;;;;;9.18;8.20;;;;;;;;;;4926361;29;20446;-71
2022/05/12 04:20:45;;;;;;;8.98;7.90;;;;;;;;;;4927860;29;20031;-71
2022/05/12 04:23:10;;;;;;;11.23;8.73;;;;;;;;;;4926138;28;20023;-73
2022/05/12 04:25:35;;;;;;;13.55;8.57;;;;;;;;;;4926857;28;20340;-70
2022/05/12 04:28:01;;;;;;;12.48;9.93;;;;;;;;;;4932134;28;20397;-72
2022/05/12 04:30:27;;;;;;;14.32;10.38;;;;;;;;;;4928933;28;20038;-71
2022/05/12 04:32:53;;;;;;;16.10;10.20;;;;;;;;;;4928029;29;20019;-73
2022/05/12 04:35:20;;;;;;;14.50;10.40;;;;;;;;;;4925528;28;20038;-69
2022/05/12 04:37:47;;;;;;;12.48;8.27;;;;;;;;;;4934086;28;20089;-70
2022/05/12 04:40:16;;;;;;;13.15;8.57;;;;;;;;;;4939072;29;20110;-73
2022/05/12 04:42:41;;;;;;;10.93;8.30;;;;;;;;;;4937941;29;20050;-70
2022/05/12 04:45:07;;;;;;;15.65;8.00;;;;;;;;;;4928865;28;20035;-71
2022/05/12 04:47:33;;;;;;;8.77;7.78;;;;;;;;;;4927105;28;20118;-72
2022/05/12 04:49:58;;;;;;;10.15;7.85;;;;;;;;;;4935490;28;20449;-69
2022/05/12 04:52:24;;;;;;;8.90;8.00;;;;;;;;;;4938009;29;20050;-70
2022/05/12 04:54:49;;;;;;;11.98;8.35;;;;;;;;;;4931365;29;20019;-71
2022/05/12 04:57:15;;;;;;;11.48;8.23;;;;;;;;;;4934632;28;20034;-71
2022/05/12 04:59:40;;;;;;;9.57;7.78;;;;;;;;;;4935670;28;20066;-70
2022/05/12 05:02:05;;;;;;;12.88;9.48;;;;;;;;;;4937271;28;20035;-73
2022/05/12 05:04:31;;;;;;;16.77;10.30;;;;;;;;;;4943892;28;20111;-72
2022/05/12 05:06:56;;;;;;;16.63;11.43;;;;;;;;;;4937650;28;20035;-70
2022/05/12 05:09:22;;;;;;;15.73;8.90;;;;;;;;;;4933291;28;20038;-70
2022/05/12 05:11:47;;;;;;;10.23;7.53;;;;;;;;;;4936609;29;20342;-71
2022/05/12 05:14:12;;;;;;;9.50;6.82;;;;;;;;;;4935045;29;20629;-71
2022/05/12 05:16:38;;;;;;;8.02;7.22;;;;;;;;;;4938451;28;20031;-71
2022/05/12 05:19:03;;;;;;;26.17;14.57;;;;;;;;;;4938069;29;20426;-73
2022/05/12 05:21:28;;;;;;;18.63;12.68;;;;;;;;;;4936100;28;20537;-71
2022/05/12 05:23:54;;;;;;;13.40;10.02;;;;;;;;;;4938135;28;20395;-70
2022/05/12 05:26:19;;;;;;;11.38;9.70;;;;;;;;;;4937965;28;20035;-71
2022/05/12 05:28:44;;;;;;;14.88;11.82;;;;;;;;;;4936768;29;20505;-70
2022/05/12 05:31:10;;;;;;;14.05;10.07;;;;;;;;;;4938503;28;20062;-72
2022/05/12 05:33:35;;;;;;;14.48;9.75;;;;;;;;;;4937626;28;20118;-73
2022/05/12 05:36:00;;;;;;;15.90;13.15;;;;;;;;;;4937857;28;20114;-70
2022/05/12 05:38:26;;;;;;;16.13;13.48;;;;;;;;;;4936119;29;20037;-71
2022/05/12 05:40:51;;;;;;;13.00;9.98;;;;;;;;;;4937315;28;20027;-73
2022/05/12 05:43:17;;;;;;;15.93;10.80;;;;;;;;;;4936867;29;20378;-70
2022/05/12 05:45:42;;;;;;;9.95;7.13;;;;;;;;;;4937132;28;20043;-71
2022/05/12 05:48:08;;;;;;;10.77;8.65;;;;;;;;;;4936679;28;20031;-70
2022/05/12 05:53:23;;;;;;;11.23;9.73;;;;;;;;;;4936259;28;20085;-72
2022/05/12 05:53:23;;;;;;;13.77;10.15;;;;;;;;;;4936138;29;20050;-70
2022/05/12 05:55:49;;;;;;;10.93;8.85;;;;;;;;;;4936684;28;20043;-74
2022/05/12 05:58:14;;;;;;;8.85;7.57;;;;;;;;;;4936943;28;20042;-72
2022/05/12 06:00:40;;;;;;;17.25;15.57;;;;;;;;;;4937884;29;20121;-72
2022/05/12 06:03:09;;;;;;;8.23;7.50;;;;;;;;;;4936130;29;20035;-71
2022/05/12 06:05:35;;;;;;;15.10;6.82;;;;;;;;;;4935798;29;20046;-68
2022/05/12 06:08:00;;;;;;;7.53;6.47;;;;;;;;;;4929782;28;20020;-68
2022/05/12 06:10:26;;;;;;;8.43;7.53;;;;;;;;;;4925046;29;20027;-67
2022/05/12 06:12:51;;;;;;;8.55;6.43;;;;;;;;;;4924538;28;20050;-67
2022/05/12 06:15:17;;;;;;;9.23;6.90;;;;;;;;;;4931777;28;20051;-69
2022/05/12 06:17:42;;;;;;;7.13;5.68;;;;;;;;;;4934265;29;20027;-69
2022/05/12 06:20:09;;;;;;;6.47;5.82;;;;;;;;;;4933893;29;20027;-70
2022/05/12 06:22:35;;;;;;;7.20;6.03;;;;;;;;;;4936543;29;20035;-68
2022/05/12 06:25:01;;;;;;;6.70;5.97;;;;;;;;;;4925840;29;20034;-67
2022/05/12 06:27:26;;;;;;;6.35;5.38;;;;;;;;;;4925838;28;20032;-69
2022/05/12 06:29:52;;;;;;;7.63;5.13;;;;;;;;;;4927308;29;20032;-71
2022/05/12 06:32:17;;;;;;;5.93;4.97;;;;;;;;;;4935841;28;20114;-68
2022/05/12 06:34:43;;;;;;;6.35;5.68;;;;;;;;;;4926828;28;20462;-70
2022/05/12 06:37:10;;;;;;;8.50;5.28;;;;;;;;;;4932882;28;20023;-69
2022/05/12 06:39:35;;;;;;;6.13;5.03;;;;;;;;;;4932531;28;20126;-73
2022/05/12 06:42:01;;;;;;;6.47;4.63;;;;;;;;;;4931723;28;20534;-71
2022/05/12 06:44:27;;;;;;;7.90;5.75;;;;;;;;;;4942900;28;20036;-70
2022/05/12 06:46:52;;;;;;;14.77;9.45;;;;;;;;;;4935813;28;20031;-73
2022/05/12 06:49:17;;;;;;;31.17;17.48;;;;;;;;;;4937512;29;20091;-73
2022/05/12 06:51:44;;;;;;;17.98;10.02;;;;;;;;;;4937356;28;20032;-73
2022/05/12 06:54:10;;;;;;;8.57;6.55;;;;;;;;;;4930734;28;20069;-69
2022/05/12 06:56:35;;;;;;;9.52;5.35;;;;;;;;;;4926597;28;20028;-70
2022/05/12 06:59:01;;;;;;;9.43;4.57;;;;;;;;;;4936187;28;20035;-70
2022/05/12 07:01:27;;;;;;;5.45;4.03;;;;;;;;;;4933396;28;20043;-68
2022/05/12 07:03:53;;;;;;;4.80;4.38;;;;;;;;;;4925263;28;20023;-72
2022/05/12 07:06:18;;;;;;;5.18;3.85;;;;;;;;;;4928979;28;20030;-69
2022/05/12 07:08:44;;;;;;;4.47;3.75;;;;;;;;;;4935799;28;20025;-72
2022/05/12 07:11:10;;;;;;;6.05;3.90;;;;;;;;;;4936212;28;20113;-68
2022/05/12 07:13:35;;;;;;;4.57;3.95;;;;;;;;;;4934414;28;20036;-67
2022/05/12 07:16:01;;;;;;;5.70;4.10;;;;;;;;;;4927848;28;20427;-70
2022/05/12 07:18:27;;;;;;;3.78;3.40;;;;;;;;;;4923502;28;20023;-70
2022/05/12 07:26:35;;;;;;;5.57;4.30;;;;;;;;;;4925635;28;20101;-74
2022/05/12 07:29:05;;;;;;;5.25;3.88;;;;;;;;;;4924338;29;20032;-69
2022/05/12 07:31:30;;;;;;;;;;;;;;;;;;4925625;28;20027;-69
2022/05/12 07:33:57;;;;;;;3.77;3.40;;;;;;;;;;4930073;29;19910;-70
2022/05/12 07:36:26;;;;;;;8.73;3.30;;;;;;;;;;4929124;28;20024;-70
2022/05/12 07:38:52;;;;;;;4.82;3.28;;;;;;;;;;4929267;28;20035;-69
2022/05/12 07:41:19;;;;;;;6.20;3.42;;;;;;;;;;4928028;28;20028;-73
2022/05/12 07:43:45;;;;;;;7.40;3.40;;;;;;;;;;4927001;28;20040;-72
2022/05/12 07:46:12;;;;;;;3.22;2.92;;;;;;;;;;4929167;28;20031;-70
2022/05/12 07:48:38;;;;;;;4.25;3.15;;;;;;;;;;4928668;28;20031;-72
2022/05/12 07:51:04;;;;;;;3.00;2.70;;;;;;;;;;4929809;28;20081;-75
2022/05/12 07:53:29;;;;;;;4.07;2.70;;;;;;;;;;4931155;28;20039;-70
2022/05/12 07:55:54;;;;;;;8.10;3.00;;;;;;;;;;4927215;28;20065;-72
2022/05/12 07:58:20;;;;;;;5.70;3.08;;;;;;;;;;4927921;29;20039;-73
2022/05/12 08:00:45;;;;;;;4.18;3.47;;;;;;;;;;4927149;29;20055;-73
2022/05/12 08:03:11;;;;;;;6.22;3.35;;;;;;;;;;4927518;29;20039;-70
2022/05/12 08:05:36;;;;;;;4.35;2.85;;;;;;;;;;4927118;29;20373;-70
2022/05/12 08:08:04;;;;;;;4.75;3.38;;;;;;;;;;4928814;28;20107;-70
2022/05/12 08:10:29;;;;;;;2.80;2.60;;;;;;;;;;4924945;28;20032;-72
2022/05/12 08:12:55;;;;;;;2.75;2.55;;;;;;;;;;4928256;28;20031;-72
2022/05/12 08:15:22;;;;;;;3.50;3.20;;;;;;;;;;4927014;28;20031;-71
2022/05/12 08:17:48;;;;;;;6.57;2.85;;;;;;;;;;4927371;28;20024;-72
2022/05/12 08:20:14;;;;;;;2.78;2.47;;;;;;;;;;4926479;28;20047;-74
2022/05/12 08:22:39;;;;;;;3.22;2.67;;;;;;;;;;4927310;28;20042;-73
2022/05/12 08:25:07;;;;;;;5.60;2.78;;;;;;;;;;4939750;28;20043;-69
2022/05/12 08:27:33;;;;;;;4.90;2.92;;;;;;;;;;4939903;29;20031;-70
2022/05/12 08:30:00;;;;;;;7.43;2.92;;;;;;;;;;4939957;29;20028;-69
2022/05/12 08:32:25;;;;;;;3.22;2.88;;;;;;;;;;4939714;29;20125;-73
2022/05/12 08:34:50;;;;;;;3.05;2.85;;;;;;;;;;4939335;28;20106;-73
2022/05/12 08:37:16;;;;;;;5.88;2.92;;;;;;;;;;4939130;29;20432;-70
2022/05/12 08:39:44;;;;;;;3.85;3.03;;;;;;;;;;4937424;28;20027;-71
2022/05/12 08:42:25;;;;;;;3.10;2.85;;;;;;;;;;4932196;28;20035;-68
2022/05/12 08:44:51;;;;;;;3.58;3.28;;;;;;;;;;4938907;29;20039;-70
2022/05/12 08:47:18;;;;;;;4.55;3.20;;;;;;;;;;4937353;29;20059;-72
2022/05/12 08:49:47;;;;;;;4.75;3.10;;;;;;;;;;4931634;28;20023;-70
2022/05/12 08:52:18;;;;;;;6.65;3.25;;;;;;;;;;4937935;28;20415;-70
2022/05/12 08:54:46;;;;;;;7.93;3.15;;;;;;;;;;4939974;29;20023;-70
2022/05/12 08:57:22;;;;;;;3.40;3.10;;;;;;;;;;4951979;28;21085;-70
2022/05/12 08:59:48;;;;;;;14.90;3.20;;;;;;;;;;4938722;29;20052;-69
2022/05/12 09:02:31;;;;;;;5.25;3.00;;;;;;;;;;4938510;29;20031;-70
2022/05/12 09:04:57;;;;;;;3.53;3.22;;;;;;;;;;4937374;29;20031;-69
2022/05/12 09:07:22;;;;;;;3.73;3.30;;;;;;;;;;4940078;28;20034;-68
2022/05/12 09:09:47;;;;;;;4.87;3.00;;;;;;;;;;4937628;29;20280;-70
2022/05/12 09:12:31;;;;;;;3.93;3.47;;;;;;;;;;4936627;29;20257;-71
2022/05/12 09:15:00;;;;;;;6.60;2.83;;;;;;;;;;4925146;28;20254;-72
2022/05/12 09:17:29;;;;;;;4.88;3.20;;;;;;;;;;4927556;28;20035;-69
2022/05/12 09:19:55;;;;;;;;;;;;;;;;;;4926902;29;20027;-71
2022/05/12 09:22:27;;;;;;;4.50;3.20;;;;;;;;;;4927142;28;19919;-71
2022/05/12 09:24:52;;;;;;;5.35;3.00;;;;;;;;;;4928255;29;20544;-70
2022/05/12 09:27:25;;;;;;;4.90;3.05;;;;;;;;;;4927544;28;20039;-71
2022/05/12 09:29:51;;;;;;;5.10;3.60;;;;;;;;;;4927643;28;20055;-71
2022/05/12 09:32:22;;;;;;;4.78;3.17;;;;;;;;;;4927429;28;20065;-69
2022/05/12 09:35:04;;;;;;;4.20;3.03;;;;;;;;;;4925717;28;20020;-69
2022/05/12 09:37:30;;;;;;;4.53;3.10;;;;;;;;;;4927413;28;20173;-72
2022/05/12 09:40:14;;;;;;;5.50;3.20;;;;;;;;;;4927679;28;20106;-71
2022/05/12 09:42:41;;;;;;;6.65;3.17;;;;;;;;;;4926779;28;20370;-69
2022/05/12 09:45:18;;;;;;;3.70;3.00;;;;;;;;;;4930846;28;20447;-70
2022/05/12 09:47:44;;;;;;;5.85;3.10;;;;;;;;;;4926304;28;20477;-69
2022/05/12 09:50:16;;;;;;;3.80;2.88;;;;;;;;;;4927916;28;20028;-71
2022/05/12 09:52:55;;;;;;;4.35;3.33;;;;;;;;;;4928229;29;20035;-72
2022/05/12 09:55:20;;;;;;;;;;;;;;;;;;4939699;29;20019;-71
2022/05/12 09:57:48;;;;;;;3.20;2.90;;;;;;;;;;4937340;28;20334;-71
2022/05/12 10:00:24;;;;;;;3.63;2.85;;;;;;;;;;4937736;28;20059;-73
2022/05/12 10:08:25;;;;;;;3.22;2.63;;;;;;;;;;4938281;28;20125;-68
2022/05/12 10:10:56;;;;;;;8.57;3.15;;;;;;;;;;4938462;29;20027;-73
2022/05/12 10:13:35;;;;;;;2.85;2.63;;;;;;;;;;4939295;29;20113;-71
2022/05/12 10:16:00;;;;;;;4.82;3.20;;;;;;;;;;4936798;28;20412;-72
2022/05/12 10:18:35;;;;;;;4.35;3.08;;;;;;;;;;4938128;28;20027;-71
2022/05/12 10:21:12;;;;;;;4.80;2.83;;;;;;;;;;4925086;28;20023;-73
2022/05/12 10:23:41;;;;;;;3.50;3.05;;;;;;;;;;4922905;28;20043;-71
2022/05/12 10:26:10;;;;;;;4.57;2.97;;;;;;;;;;4926808;28;20378;-69
2022/05/12 10:28:44;;;;;;;3.20;2.90;;;;;;;;;;4927490;28;20031;-71
2022/05/12 10:31:09;;;;;;;3.78;2.90;;;;;;;;;;4926985;28;20042;-71
2022/05/12 10:33:35;;;;;;;4.70;3.17;;;;;;;;;;4937468;29;20027;-70
2022/05/12 10:36:04;;;;;;;4.40;3.00;;;;;;;;;;4938010;28;20585;-69
2022/05/12 10:38:29;;;;;;;;;;;;;;;;;;4937950;28;20660;-69
2022/05/12 10:41:16;;;;;;;5.50;2.72;;;;;;;;;;4935795;29;19956;-70
2022/05/12 10:44:00;;;;;;;4.65;3.15;;;;;;;;;;4935207;28;20489;-72
2022/05/12 10:46:28;;;;;;;3.15;2.83;;;;;;;;;;4937066;29;20081;-69
2022/05/12 10:48:56;;;;;;;5.03;3.00;;;;;;;;;;4936910;28;20024;-72
2022/05/12 10:51:45;;;;;;;3.20;2.90;;;;;;;;;;4937270;29;20034;-70
2022/05/12 10:54:30;;;;;;;5.93;3.22;;;;;;;;;;4936762;28;20046;-73
2022/05/12 10:57:09;;;;;;;6.68;3.10;;;;;;;;;;4936528;29;20465;-71
2022/05/12 10:59:34;;;;;;;10.55;3.53;;;;;;;;;;4935248;29;20277;-69
2022/05/12 11:02:12;;;;;;;4.30;3.03;;;;;;;;;;4937059;28;20152;-70
2022/05/12 11:04:44;;;;;;;5.32;3.05;;;;;;;;;;4937577;28;20038;-73
2022/05/12 11:07:29;;;;;;;4.85;3.42;;;;;;;;;;4936481;28;20023;-71
2022/05/12 11:10:03;;;;;;;6.38;3.10;;;;;;;;;;4957607;28;20051;-69
2022/05/12 11:13:00;;;;;;;7.32;3.28;;;;;;;;;;4940312;29;20023;-70
2022/05/12 11:15:28;;;;;;;5.85;3.05;;;;;;;;;;4954544;28;20134;-73
2022/05/12 11:18:01;;;;;;;4.10;3.03;;;;;;;;;;4939425;29;20031;-71
2022/05/12 11:20:31;;;;;;;4.63;3.00;;;;;;;;;;4938206;28;20031;-72
2022/05/12 11:23:07;;;;;;;4.30;2.90;;;;;;;;;;4936733;28;20406;-70
2022/05/12 11:25:52;;;;;;;4.05;2.95;;;;;;;;;;4938387;28;20035;-70
2022/05/12 11:31:12;;;;;;;13.07;3.42;;;;;;;;;;4938765;29;20030;-70
2022/05/12 11:33:39;;;;;;;3.88;3.17;;;;;;;;;;4937447;28;20069;-71
2022/05/12 11:36:04;;;;;;;4.35;3.03;;;;;;;;;;4937458;29;20035;-70
2022/05/12 11:38:39;;;;;;;4.22;2.90;;;;;;;;;;4939603;28;20035;-70
2022/05/12 11:41:30;;;;;;;3.45;2.67;;;;;;;;;;4939379;29;20019;-72
2022/05/12 11:44:24;;;;;;;5.22;3.08;;;;;;;;;;4949875;28;20095;-70
2022/05/12 11:47:05;;;;;;;5.53;3.33;;;;;;;;;;4936753;29;20567;-71
2022/05/12 11:49:56;;;;;;;4.20;3.05;;;;;;;;;;4940700;29;20443;-71
2022/05/12 11:52:25;;;;;;;3.03;2.80;;;;;;;;;;4938616;29;20786;-70
2022/05/12 11:55:03;;;;;;;4.30;3.03;;;;;;;;;;4938597;29;20032;-72
2022/05/12 11:57:32;;;;;;;5.80;3.38;;;;;;;;;;4939474;28;20031;-70
2022/05/12 11:59:57;;;;;;;;;;;;;;;;;;4941016;29;20043;-69
2022/05/12 12:02:29;;;;;;;3.07;2.73;;;;;;;;;;4940562;29;19921;-69
2022/05/12 12:04:55;;;;;;;5.88;3.28;;;;;;;;;;4941423;28;20113;-73
2022/05/12 12:07:21;;;;;;;4.25;3.42;;;;;;;;;;4938992;29;20035;-69
2022/05/12 12:09:46;;;;;;;4.07;3.17;;;;;;;;;;4940558;28;20023;-73
2022/05/12 12:12:31;;;;;;;4.05;3.55;;;;;;;;;;4939121;29;20410;-69
2022/05/12 12:15:00;;;;;;;4.38;2.92;;;;;;;;;;4941138;28;20045;-73
2022/05/12 12:17:25;;;;;;;4.15;3.22;;;;;;;;;;4942066;28;20027;-70
2022/05/12 12:19:56;;;;;;;3.97;3.10;;;;;;;;;;4938400;29;20080;-69
2022/05/12 12:22:40;;;;;;;4.88;3.45;;;;;;;;;;4939535;29;20314;-69
2022/05/12 12:25:08;;;;;;;4.35;3.50;;;;;;;;;;4940569;28;20035;-70
2022/05/12 12:27:42;;;;;;;5.70;3.90;;;;;;;;;;4941046;28;20034;-70
2022/05/12 12:30:37;;;;;;;5.85;3.97;;;;;;;;;;4940667;28;20035;-69
2022/05/12 12:33:15;;;;;;;6.07;4.90;;;;;;;;;;4948131;28;20520;-72
2022/05/12 12:36:00;;;;;;;5.30;3.63;;;;;;;;;;4940882;29;20033;-70
2022/05/12 12:38:44;;;;;;;3.95;3.33;;;;;;;;;;4939506;29;20111;-70
2022/05/12 12:41:10;;;;;;;5.40;4.88;;;;;;;;;;4939865;29;20045;-72
2022/05/12 12:43:37;;;;;;;5.00;3.90;;;;;;;;;;4940346;29;20035;-72
2022/05/12 12:46:29;;;;;;;4.72;3.47;;;;;;;;;;4939342;28;20035;-69
2022/05/12 12:49:03;;;;;;;3.40;2.90;;;;;;;;;;4937810;28;20047;-69
2022/05/12 12:51:29;;;;;;;4.32;3.38;;;;;;;;;;4939076;29;20501;-73
2022/05/12 12:56:41;;;;;;;5.60;3.15;;;;;;;;;;4936869;29;20119;-69
2022/05/12 12:59:24;;;;;;;3.20;2.90;;;;;;;;;;4941074;28;20031;-70
2022/05/12 13:02:00;;;;;;;5.70;3.20;;;;;;;;;;4938571;29;20369;-69
2022/05/12 13:04:25;;;;;;;3.08;2.78;;;;;;;;;;4939146;29;20027;-74
2022/05/12 13:06:52;;;;;;;4.32;2.47;;;;;;;;;;4940010;29;20028;-70
2022/05/12 13:09:23;;;;;;;3.67;2.50;;;;;;;;;;4938965;28;20315;-72
2022/05/12 13:11:48;;;;;;;2.50;2.30;;;;;;;;;;4937989;29;20027;-70
2022/05/12 13:14:15;;;;;;;2.92;2.40;;;;;;;;;;4930499;29;20115;-69
2022/05/12 13:16:42;;;;;;;3.22;2.25;;;;;;;;;;4927962;29;20031;-71
2022/05/12 13:19:08;;;;;;;2.60;2.40;;;;;;;;;;4925199;29;20023;-72
2022/05/12 13:21:37;;;;;;;2.65;2.45;;;;;;;;;;4927995;28;20339;-71
2022/05/12 13:24:05;;;;;;;4.20;2.88;;;;;;;;;;4938857;28;20042;-72
2022/05/12 13:26:31;;;;;;;3.67;2.65;;;;;;;;;;4937847;28;20121;-71
2022/05/12 13:28:57;;;;;;;9.45;2.50;;;;;;;;;;4939732;28;20023;-71
2022/05/12 13:31:42;;;;;;;4.05;2.40;;;;;;;;;;4939094;29;20042;-72
2022/05/12 13:34:13;;;;;;;2.22;2.05;;;;;;;;;;4938039;28;20046;-70
2022/05/12 13:36:41;;;;;;;2.60;2.40;;;;;;;;;;4925989;28;20042;-76
2022/05/12 13:39:13;;;;;;;5.05;2.35;;;;;;;;;;4926473;28;20046;-71
2022/05/12 13:41:48;;;;;;;3.95;2.47;;;;;;;;;;4934712;28;20071;-72
2022/05/12 13:44:21;;;;;;;2.75;2.08;;;;;;;;;;4939047;29;20027;-70
2022/05/12 13:46:51;;;;;;;4.05;2.35;;;;;;;;;;4937732;29;20145;-72
2022/05/12 13:49:26;;;;;;;4.10;2.30;;;;;;;;;;4940471;29;20035;-70
2022/05/12 13:51:55;;;;;;;3.42;2.88;;;;;;;;;;4938021;28;20034;-71
2022/05/12 13:54:23;;;;;;;2.72;2.00;;;;;;;;;;4939206;29;20031;-72
2022/05/12 13:56:48;;;;;;;2.65;2.20;;;;;;;;;;4927375;28;20466;-71
2022/05/12 13:59:30;;;;;;;2.80;2.30;;;;;;;;;;4925572;28;20042;-71
2022/05/12 14:02:19;;;;;;;3.45;1.95;;;;;;;;;;4923010;29;20142;-71
2022/05/12 14:04:44;;;;;;;3.35;1.92;;;;;;;;;;4923822;28;20436;-71
2022/05/12 14:07:10;;;;;;;3.25;1.73;;;;;;;;;;4927353;28;20042;-70
2022/05/12 14:09:49;;;;;;;3.47;2.38;;;;;;;;;;4931733;28;20027;-71
2022/05/12 14:12:25;;;;;;;2.22;2.03;;;;;;;;;;4937596;28;20027;-71
2022/05/12 14:20:25;;;;;;;2.25;1.92;;;;;;;;;;4933613;28;20070;-73
2022/05/12 14:22:50;;;;;;;7.25;2.67;;;;;;;;;;4925924;28;20109;-72
2022/05/12 14:25:17;;;;;;;2.20;1.60;;;;;;;;;;4926585;28;20035;-71
2022/05/12 14:27:43;;;;;;;3.00;2.00;;;;;;;;;;4942647;28;20046;-71
2022/05/12 14:30:09;;;;;;;2.65;1.80;;;;;;;;;;4930178;28;20027;-72
2022/05/12 14:32:39;;;;;;;1.77;1.42;;;;;;;;;;4927741;29;20027;-72
2022/05/12 14:35:05;;;;;;;2.92;1.75;;;;;;;;;;4925772;28;20374;-73
2022/05/12 14:37:31;;;;;;;3.00;1.60;;;;;;;;;;4915645;29;20339;-73
2022/05/12 14:39:57;;;;;;;2.42;1.60;;;;;;;;;;4937293;28;20081;-73
2022/05/12 14:42:22;;;;;;;1.98;1.63;;;;;;;;;;4940238;28;20446;-72
2022/05/12 14:44:47;;;;;;;2.90;1.60;;;;;;;;;;4940831;28;20038;-71
2022/05/12 14:47:17;;;;;;;1.55;1.40;;;;;;;;;;4941586;28;20039;-73
2022/05/12 14:49:45;;;;;;;1.50;1.40;;;;;;;;;;4939810;29;20118;-72
2022/05/12 14:52:12;;;;;;;2.60;1.42;;;;;;;;;;4928083;28;20029;-70
2022/05/12 14:54:38;;;;;;;1.38;1.27;;;;;;;;;;4929838;28;20027;-74
2022/05/12 14:57:04;;;;;;;2.92;1.55;;;;;;;;;;4931296;28;20031;-71
2022/05/12 14:59:29;;;;;;;3.10;1.52;;;;;;;;;;4942996;28;20139;-73
2022/05/12 15:01:55;;;;;;;2.58;1.42;;;;;;;;;;4941954;28;20126;-74
2022/05/12 15:04:24;;;;;;;1.65;1.30;;;;;;;;;;4941168;29;20123;-71
2022/05/12 15:06:50;;;;;;;2.10;1.40;;;;;;;;;;4941200;29;20031;-74
2022/05/12 15:09:17;;;;;;;1.40;1.30;;;;;;;;;;4930719;29;20153;-75
2022/05/12 15:11:43;;;;;;;2.88;1.25;;;;;;;;;;4926847;28;20035;-72
2022/05/12 15:14:08;;;;;;;2.75;1.55;;;;;;;;;;4928758;29;20058;-72
2022/05/12 15:16:33;;;;;;;2.75;1.40;;;;;;;;;;4931824;29;20035;-71